Terminal Aerodrome Forecast
Issued by NWS

Home | Current Version | Previous Version | Text Only | Print | Product List | Glossary On
Versions: 1 2 3 4 5 6 7 8 9 10 11 12 13 14 15 16 17 18 19 20 21 22 23
000
FTUS43 KAPX 190900 AAB
TAFPLN
TAF AMD
KPLN 190957Z 1910/2006 VRB03KT P6SM SCT005
      TEMPO 1910/1913 2SM BR BKN005
     FM191300 11005KT P6SM SCT200
     FM191500 12012KT P6SM SCT100 BKN200
     FM200200 12005KT P6SM BKN100 WS020/20035KT=

USA.gov is the U.S. government's official web portal to all federal, state and local government web resources and services.